createdAt,value
2018-09-08T00:00:38.671Z,0.00
2018-09-08T00:01:38.680Z,0.00
2018-09-08T00:02:38.684Z,0.00
2018-09-08T00:03:38.696Z,0.00
2018-09-08T00:04:38.709Z,0.00
2018-09-08T00:05:38.732Z,0.00
2018-09-08T00:06:38.706Z,0.00
2018-09-08T00:07:38.712Z,0.00
2018-09-08T00:08:38.791Z,0.00
2018-09-08T00:09:38.718Z,0.00
2018-09-08T00:10:38.779Z,0.00
2018-09-08T00:11:38.745Z,0.00
2018-09-08T00:12:38.723Z,0.00
2018-09-08T00:13:38.728Z,0.00
2018-09-08T00:14:38.737Z,0.00
2018-09-08T00:15:38.750Z,0.00
2018-09-08T00:16:38.746Z,0.00
2018-09-08T00:17:38.753Z,0.00
2018-09-08T00:18:38.751Z,0.00
2018-09-08T00:19:38.755Z,0.00
2018-09-08T00:20:38.766Z,0.00
2018-09-08T00:21:38.799Z,0.00
2018-09-08T00:22:38.773Z,0.00
2018-09-08T00:23:38.779Z,0.00
2018-09-08T00:24:38.841Z,0.00
2018-09-08T00:25:38.801Z,0.00
2018-09-08T00:26:38.806Z,0.00
2018-09-08T00:27:38.803Z,0.00
2018-09-08T00:28:38.795Z,0.00
2018-09-08T00:29:38.802Z,0.00
2018-09-08T00:30:38.805Z,0.00
2018-09-08T00:31:38.810Z,0.00
2018-09-08T00:32:38.823Z,0.00
2018-09-08T00:33:38.825Z,0.00
2018-09-08T00:34:38.822Z,0.00
2018-09-08T00:35:38.834Z,0.00
2018-09-08T00:36:38.831Z,0.00
2018-09-08T00:37:38.846Z,0.00
2018-09-08T00:38:38.845Z,0.00
2018-09-08T00:39:38.895Z,0.00
2018-09-08T00:40:38.862Z,0.00
2018-09-08T00:41:38.870Z,0.00
2018-09-08T00:42:38.865Z,0.00
2018-09-08T00:43:38.915Z,0.00
2018-09-08T00:44:38.895Z,0.00
2018-09-08T00:45:38.941Z,0.00
2018-09-08T00:46:38.882Z,0.00
2018-09-08T00:47:38.874Z,0.00
2018-09-08T00:48:38.882Z,0.00
2018-09-08T00:49:38.888Z,0.00
2018-09-08T00:50:38.897Z,0.00
2018-09-08T00:51:38.891Z,0.00
2018-09-08T00:52:38.964Z,0.00
2018-09-08T00:53:38.912Z,0.00
2018-09-08T00:54:38.904Z,0.00
2018-09-08T00:55:38.913Z,0.00
2018-09-08T00:56:38.920Z,0.00
2018-09-08T00:57:38.928Z,0.00
2018-09-08T00:58:38.945Z,0.00
2018-09-08T00:59:38.923Z,0.00
2018-09-08T01:00:38.932Z,0.00
2018-09-08T01:01:38.935Z,0.00
2018-09-08T01:02:38.943Z,0.00
2018-09-08T01:03:38.986Z,0.00
2018-09-08T01:04:38.997Z,0.00
2018-09-08T01:05:38.954Z,0.00
2018-09-08T01:06:38.964Z,0.00
2018-09-08T01:07:38.960Z,0.00
2018-09-08T01:08:38.959Z,0.00
2018-09-08T01:09:38.977Z,0.00
2018-09-08T01:10:38.973Z,0.00
2018-09-08T01:11:38.980Z,0.00
2018-09-08T01:12:39.017Z,0.00
2018-09-08T01:13:38.983Z,0.00
2018-09-08T01:14:38.989Z,0.00
2018-09-08T01:15:38.993Z,0.00
2018-09-08T01:16:39.031Z,0.00
2018-09-08T01:17:39.026Z,0.00
2018-09-08T01:18:39.003Z,0.00
2018-09-08T01:19:39.006Z,0.00
2018-09-08T01:20:39.020Z,0.00
2018-09-08T01:21:39.079Z,0.00
2018-09-08T01:22:39.018Z,0.00
2018-09-08T01:23:39.067Z,0.00
2018-09-08T01:24:39.027Z,0.00
2018-09-08T01:25:39.053Z,0.00
2018-09-08T01:26:39.041Z,0.00
2018-09-08T01:27:39.045Z,0.00
2018-09-08T01:28:39.048Z,0.00
2018-09-08T01:29:39.086Z,0.00
2018-09-08T01:30:39.061Z,0.00
2018-09-08T01:31:39.055Z,0.00
2018-09-08T01:32:39.073Z,0.00
2018-09-08T01:33:39.063Z,0.00
2018-09-08T01:34:39.070Z,0.00
2018-09-08T01:35:39.069Z,0.00
2018-09-08T01:36:39.081Z,0.00
2018-09-08T01:37:39.089Z,0.00
2018-09-08T01:38:39.091Z,0.00
2018-09-08T01:39:39.087Z,0.00
2018-09-08T01:40:39.095Z,0.00
2018-09-08T01:41:39.094Z,0.00
2018-09-08T01:42:39.130Z,0.00
2018-09-08T01:43:39.112Z,0.00
2018-09-08T01:44:39.109Z,0.00
2018-09-08T01:45:39.142Z,0.00
2018-09-08T01:46:39.123Z,0.00
2018-09-08T01:47:39.127Z,0.00
2018-09-08T01:48:39.142Z,0.00
2018-09-08T01:49:39.143Z,0.00
2018-09-08T01:50:39.129Z,0.00
2018-09-08T01:51:39.136Z,0.00
2018-09-08T01:52:39.143Z,0.00
2018-09-08T01:53:39.143Z,0.00
2018-09-08T01:54:39.183Z,0.00
2018-09-08T01:55:39.154Z,0.00
2018-09-08T01:56:39.169Z,0.00
2018-09-08T01:57:39.168Z,0.00
2018-09-08T01:58:39.167Z,0.00
2018-09-08T01:59:39.236Z,0.00
2018-09-08T02:00:39.198Z,0.00
2018-09-08T02:01:39.209Z,0.00
2018-09-08T02:02:39.179Z,0.00
2018-09-08T02:03:39.187Z,0.00
2018-09-08T02:04:39.186Z,0.00
2018-09-08T02:05:39.263Z,0.00
2018-09-08T02:06:39.208Z,0.00
2018-09-08T02:07:39.202Z,0.00
2018-09-08T02:08:39.210Z,0.00
2018-09-08T02:09:39.204Z,0.00
2018-09-08T02:10:39.209Z,0.00
2018-09-08T02:11:39.212Z,0.00
2018-09-08T02:12:39.221Z,0.00
2018-09-08T02:13:39.239Z,0.00
2018-09-08T02:14:39.236Z,0.00
2018-09-08T02:15:39.252Z,0.00
2018-09-08T02:16:39.240Z,0.00
2018-09-08T02:17:39.241Z,0.00
2018-09-08T02:18:39.250Z,0.00
2018-09-08T02:19:39.242Z,0.00
2018-09-08T02:20:39.259Z,0.00
2018-09-08T02:21:39.259Z,0.00
2018-09-08T02:22:39.256Z,0.00
2018-09-08T02:23:39.259Z,0.00
2018-09-08T02:24:39.270Z,0.00
2018-09-08T02:25:39.269Z,0.00
2018-09-08T02:26:39.270Z,0.00
2018-09-08T02:27:39.276Z,0.00
2018-09-08T02:28:39.290Z,0.00
2018-09-08T02:29:39.319Z,0.00
2018-09-08T02:30:39.339Z,0.00
2018-09-08T02:31:39.314Z,0.00
2018-09-08T02:32:39.290Z,0.00
2018-09-08T02:33:39.293Z,0.00
2018-09-08T02:34:39.321Z,0.00
2018-09-08T02:35:39.304Z,0.00
2018-09-08T02:36:39.317Z,0.00
2018-09-08T02:37:39.308Z,0.00
2018-09-08T02:38:39.310Z,0.00
2018-09-08T02:39:39.323Z,0.00
2018-09-08T02:40:39.318Z,0.00
2018-09-08T02:41:39.335Z,0.00
2018-09-08T02:42:39.332Z,0.00
2018-09-08T02:43:39.333Z,0.00
2018-09-08T02:44:39.337Z,0.00
2018-09-08T02:45:39.351Z,0.00
2018-09-08T02:46:39.339Z,0.00
2018-09-08T02:47:39.343Z,0.00
2018-09-08T02:48:39.373Z,0.00
2018-09-08T02:49:39.357Z,0.00
2018-09-08T02:50:39.390Z,0.00
2018-09-08T02:51:39.363Z,0.00
2018-09-08T02:52:39.363Z,0.00
2018-09-08T02:53:39.372Z,0.00
2018-09-08T02:54:39.414Z,0.00
2018-09-08T02:55:39.449Z,0.00
2018-09-08T02:56:39.381Z,0.00
2018-09-08T02:57:39.390Z,0.00
2018-09-08T02:58:39.383Z,0.00
2018-09-08T02:59:39.433Z,0.00
2018-09-08T03:00:39.400Z,0.00
2018-09-08T03:01:39.395Z,0.00
2018-09-08T03:02:39.404Z,0.00
2018-09-08T03:03:39.404Z,0.00
2018-09-08T03:04:39.406Z,0.00
2018-09-08T03:05:39.409Z,0.00
2018-09-08T03:06:39.414Z,0.00
2018-09-08T03:07:39.425Z,0.00
2018-09-08T03:08:39.436Z,0.00
2018-09-08T03:09:39.432Z,0.00
2018-09-08T03:10:39.504Z,0.00
2018-09-08T03:11:39.435Z,0.00
2018-09-08T03:12:39.438Z,0.00
2018-09-08T03:13:39.446Z,0.00
2018-09-08T03:14:39.453Z,0.00
2018-09-08T03:15:39.482Z,0.00
2018-09-08T03:16:39.453Z,0.00
2018-09-08T03:17:39.462Z,0.00
2018-09-08T03:18:39.462Z,0.00
2018-09-08T03:19:39.501Z,0.00
2018-09-08T03:20:39.465Z,0.00
2018-09-08T03:21:39.468Z,0.00
2018-09-08T03:22:39.572Z,0.00
2018-09-08T03:23:39.481Z,0.00
2018-09-08T03:24:39.502Z,0.00
2018-09-08T03:25:39.496Z,0.00
2018-09-08T03:26:39.494Z,0.00
2018-09-08T03:27:39.528Z,0.00
2018-09-08T03:28:39.495Z,0.00
2018-09-08T03:29:39.499Z,0.00
2018-09-08T03:30:39.503Z,0.00
2018-09-08T03:31:39.516Z,0.00
2018-09-08T03:32:39.535Z,0.00
2018-09-08T03:33:39.509Z,0.00
2018-09-08T03:34:39.512Z,0.00
2018-09-08T03:35:39.522Z,0.00
2018-09-08T03:36:39.534Z,0.00
2018-09-08T03:37:39.533Z,0.00
2018-09-08T03:38:39.545Z,0.00
2018-09-08T03:39:39.653Z,0.00
2018-09-08T03:40:39.540Z,0.00
2018-09-08T03:41:39.541Z,0.00
2018-09-08T03:42:39.560Z,0.00
2018-09-08T03:43:39.546Z,0.00
2018-09-08T03:44:39.552Z,0.00
2018-09-08T03:45:39.560Z,0.00
2018-09-08T03:46:39.557Z,0.00
2018-09-08T03:47:39.561Z,0.00
2018-09-08T03:48:39.562Z,0.00
2018-09-08T03:49:39.572Z,0.00
2018-09-08T03:50:39.601Z,0.00
2018-09-08T03:51:39.590Z,0.00
2018-09-08T03:52:39.578Z,0.00
2018-09-08T03:53:39.601Z,0.00
2018-09-08T03:54:39.588Z,0.00
2018-09-08T03:55:39.619Z,0.00
2018-09-08T03:56:39.589Z,0.00
2018-09-08T03:57:39.594Z,0.00
2018-09-08T03:58:39.600Z,0.00
2018-09-08T03:59:39.601Z,0.00
2018-09-08T04:00:39.618Z,0.00
2018-09-08T04:01:39.608Z,0.00
2018-09-08T04:02:39.613Z,0.00
2018-09-08T04:03:39.615Z,0.00
2018-09-08T04:04:39.621Z,0.00
2018-09-08T04:05:39.687Z,0.00
2018-09-08T04:06:39.629Z,0.00
2018-09-08T04:07:39.661Z,0.00
2018-09-08T04:08:39.632Z,0.00
2018-09-08T04:09:39.637Z,0.00
2018-09-08T04:10:39.658Z,0.00
2018-09-08T04:11:39.645Z,0.00
2018-09-08T04:12:39.644Z,0.00
2018-09-08T04:13:39.684Z,0.00
2018-09-08T04:14:39.656Z,0.00
2018-09-08T04:15:39.674Z,0.00
2018-09-08T04:16:39.666Z,0.00
2018-09-08T04:17:39.678Z,0.00
2018-09-08T04:18:39.677Z,0.00
2018-09-08T04:19:39.674Z,0.00
2018-09-08T04:20:39.677Z,0.00
2018-09-08T04:21:39.683Z,0.00
2018-09-08T04:22:39.679Z,0.00
2018-09-08T04:23:39.714Z,0.00
2018-09-08T04:24:39.712Z,4.00
2018-09-08T04:25:39.691Z,4.00
2018-09-08T04:26:39.700Z,0.00
2018-09-08T04:27:39.694Z,4.00
2018-09-08T04:28:39.700Z,4.00
2018-09-08T04:29:39.775Z,4.00
2018-09-08T04:30:39.709Z,4.00
2018-09-08T04:31:39.735Z,4.00
2018-09-08T04:32:39.722Z,8.00
2018-09-08T04:33:39.730Z,8.00
2018-09-08T04:34:39.765Z,8.00
2018-09-08T04:35:39.723Z,8.00
2018-09-08T04:36:39.727Z,12.00
2018-09-08T04:37:39.738Z,12.00
2018-09-08T04:38:39.733Z,12.00
2018-09-08T04:39:39.738Z,12.00
2018-09-08T04:40:39.749Z,16.00
2018-09-08T04:41:39.790Z,16.00
2018-09-08T04:42:39.749Z,20.00
2018-09-08T04:43:39.757Z,24.00
2018-09-08T04:44:39.854Z,24.00
2018-09-08T04:45:39.769Z,32.00
2018-09-08T04:46:39.762Z,36.00
2018-09-08T04:47:39.760Z,40.00
2018-09-08T04:48:39.761Z,40.00
2018-09-08T04:49:39.771Z,44.00
2018-09-08T04:50:39.777Z,52.00
2018-09-08T04:51:39.784Z,52.00
2018-09-08T04:52:39.783Z,60.00
2018-09-08T04:53:39.784Z,68.00
2018-09-08T04:54:39.788Z,72.00
2018-09-08T04:55:39.800Z,76.00
2018-09-08T04:56:39.826Z,84.00
2018-09-08T04:57:39.835Z,88.00
2018-09-08T04:58:39.798Z,96.00
2018-09-08T04:59:39.795Z,100.00
2018-09-08T05:00:39.858Z,108.00
2018-09-08T05:01:39.811Z,116.00
2018-09-08T05:02:39.824Z,120.00
2018-09-08T05:03:39.819Z,128.00
2018-09-08T05:04:39.813Z,136.00
2018-09-08T05:05:39.816Z,140.00
2018-09-08T05:06:39.830Z,148.00
2018-09-08T05:07:39.841Z,156.00
2018-09-08T05:08:39.836Z,160.00
2018-09-08T05:09:39.848Z,168.00
2018-09-08T05:10:39.838Z,176.00
2018-09-08T05:11:39.841Z,188.00
2018-09-08T05:12:39.852Z,192.00
2018-09-08T05:13:39.873Z,200.00
2018-09-08T05:14:39.849Z,208.00
2018-09-08T05:15:39.852Z,212.00
2018-09-08T05:16:39.848Z,220.00
2018-09-08T05:17:39.866Z,228.00
2018-09-08T05:18:39.911Z,236.00
2018-09-08T05:19:39.871Z,240.00
2018-09-08T05:20:39.932Z,252.00
2018-09-08T05:21:39.910Z,256.00
2018-09-08T05:22:39.876Z,268.00
2018-09-08T05:23:39.882Z,276.00
2018-09-08T05:24:39.882Z,284.00
2018-09-08T05:25:39.878Z,288.00
2018-09-08T05:26:39.886Z,296.00
2018-09-08T05:27:39.883Z,304.00
2018-09-08T05:28:39.970Z,312.00
2018-09-08T05:29:39.899Z,316.00
2018-09-08T05:30:39.947Z,320.00
2018-09-08T05:31:39.908Z,332.00
2018-09-08T05:32:39.958Z,336.00
2018-09-08T05:33:39.910Z,344.00
2018-09-08T05:34:39.911Z,348.00
2018-09-08T05:35:39.928Z,352.00
2018-09-08T05:36:39.911Z,360.00
2018-09-08T05:37:39.928Z,364.00
2018-09-08T05:38:39.931Z,372.00
2018-09-08T05:39:39.932Z,380.00
2018-09-08T05:40:39.929Z,384.00
2018-09-08T05:41:39.933Z,392.00
2018-09-08T05:42:39.932Z,400.00
2018-09-08T05:43:39.969Z,404.00
2018-09-08T05:44:39.978Z,408.00
2018-09-08T05:45:39.949Z,416.00
2018-09-08T05:46:39.951Z,420.00
2018-09-08T05:47:39.987Z,424.00
2018-09-08T05:48:39.991Z,432.00
2018-09-08T05:49:39.972Z,436.00
2018-09-08T05:50:39.964Z,440.00
2018-09-08T05:51:39.970Z,444.00
2018-09-08T05:52:39.967Z,448.00
2018-09-08T05:53:39.969Z,452.00
2018-09-08T05:54:39.972Z,456.00
2018-09-08T05:55:40.024Z,464.00
2018-09-08T05:56:39.983Z,468.00
2018-09-08T05:57:39.982Z,468.00
2018-09-08T05:58:39.988Z,476.00
2018-09-08T05:59:39.995Z,480.00
2018-09-08T06:00:39.988Z,484.00
2018-09-08T06:01:39.998Z,488.00
2018-09-08T06:02:40.003Z,492.00
2018-09-08T06:03:39.995Z,496.00
2018-09-08T06:04:40.000Z,500.00
2018-09-08T06:05:40.009Z,504.00
2018-09-08T06:06:40.036Z,512.00
2018-09-08T06:07:40.029Z,516.00
2018-09-08T06:08:40.058Z,516.00
2018-09-08T06:09:40.022Z,524.00
2018-09-08T06:10:40.075Z,528.00
2018-09-08T06:11:40.027Z,528.00
2018-09-08T06:12:40.023Z,536.00
2018-09-08T06:13:40.027Z,540.00
2018-09-08T06:14:40.037Z,540.00
2018-09-08T06:15:40.033Z,548.00
2018-09-08T06:16:40.038Z,552.00
2018-09-08T06:17:40.046Z,556.00
2018-09-08T06:18:40.043Z,560.00
2018-09-08T06:19:40.126Z,564.00
2018-09-08T06:20:40.059Z,568.00
2018-09-08T06:21:40.076Z,572.00
2018-09-08T06:22:40.066Z,576.00
2018-09-08T06:23:40.101Z,584.00
2018-09-08T06:24:40.062Z,588.00
2018-09-08T06:25:40.129Z,588.00
2018-09-08T06:26:40.141Z,596.00
2018-09-08T06:27:40.079Z,596.00
2018-09-08T06:28:40.253Z,604.00
2018-09-08T06:29:40.094Z,608.00
2018-09-08T06:30:40.083Z,608.00
2018-09-08T06:31:40.150Z,616.00
2018-09-08T06:32:40.099Z,620.00
2018-09-08T06:33:40.134Z,620.00
2018-09-08T06:34:40.133Z,624.00
2018-09-08T06:35:40.145Z,628.00
2018-09-08T06:36:40.153Z,632.00
2018-09-08T06:37:40.115Z,636.00
2018-09-08T06:38:40.134Z,640.00
2018-09-08T06:39:40.115Z,648.00
2018-09-08T06:40:40.128Z,652.00
2018-09-08T06:41:40.134Z,656.00
2018-09-08T06:42:40.131Z,660.00
2018-09-08T06:43:40.135Z,668.00
2018-09-08T06:44:40.145Z,672.00
2018-09-08T06:45:40.176Z,676.00
2018-09-08T06:46:40.154Z,680.00
2018-09-08T06:47:40.154Z,684.00
2018-09-08T06:48:40.153Z,688.00
2018-09-08T06:49:40.158Z,692.00
2018-09-08T06:50:40.185Z,700.00
2018-09-08T06:51:40.158Z,704.00
2018-09-08T06:52:40.165Z,708.00
2018-09-08T06:53:40.169Z,712.00
2018-09-08T06:54:40.178Z,716.00
2018-09-08T06:55:40.175Z,720.00
2018-09-08T06:56:40.176Z,724.00
2018-09-08T06:57:40.178Z,728.00
2018-09-08T06:58:40.207Z,732.00
2018-09-08T06:59:40.188Z,736.00
2018-09-08T07:00:40.201Z,740.00
2018-09-08T07:01:40.201Z,748.00
2018-09-08T07:02:40.205Z,752.00
2018-09-08T07:03:40.210Z,760.00
2018-09-08T07:04:40.257Z,760.00
2018-09-08T07:05:40.208Z,764.00
2018-09-08T07:06:40.258Z,772.00
2018-09-08T07:07:40.219Z,776.00
2018-09-08T07:08:40.233Z,784.00
2018-09-08T07:09:40.234Z,788.00
2018-09-08T07:10:40.242Z,796.00
2018-09-08T07:11:40.236Z,800.00
2018-09-08T07:12:40.240Z,804.00
2018-09-08T07:13:40.249Z,808.00
2018-09-08T07:14:40.253Z,812.00
2018-09-08T07:15:40.281Z,820.00
2018-09-08T07:16:40.263Z,820.00
2018-09-08T07:17:40.272Z,828.00
2018-09-08T07:18:40.295Z,832.00
2018-09-08T07:19:40.330Z,836.00
2018-09-08T07:20:40.296Z,840.00
2018-09-08T07:21:40.280Z,848.00
2018-09-08T07:22:40.280Z,852.00
2018-09-08T07:23:40.286Z,856.00
2018-09-08T07:24:40.294Z,860.00
2018-09-08T07:25:40.298Z,864.00
2018-09-08T07:26:40.301Z,872.00
2018-09-08T07:27:40.299Z,876.00
2018-09-08T07:28:40.305Z,884.00
2018-09-08T07:29:40.374Z,884.00
2018-09-08T07:30:40.320Z,892.00
2018-09-08T07:31:40.323Z,900.00
2018-09-08T07:32:40.331Z,900.00
2018-09-08T07:33:40.334Z,908.00
2018-09-08T07:34:40.354Z,916.00
2018-09-08T07:35:40.342Z,920.00
2018-09-08T07:36:40.364Z,924.00
2018-09-08T07:37:40.435Z,928.00
2018-09-08T07:38:40.356Z,928.00
2018-09-08T07:39:40.422Z,936.00
2018-09-08T07:40:40.359Z,940.00
2018-09-08T07:41:40.363Z,948.00
2018-09-08T07:42:40.370Z,952.00
2018-09-08T07:43:40.395Z,960.00
2018-09-08T07:44:40.385Z,964.00
2018-09-08T07:45:40.398Z,968.00
2018-09-08T07:46:40.444Z,972.00
2018-09-08T07:47:40.392Z,976.00
2018-09-08T07:48:40.404Z,980.00
2018-09-08T07:49:40.405Z,984.00
2018-09-08T07:50:40.407Z,992.00
2018-09-08T07:51:40.433Z,992.00
2018-09-08T07:52:40.478Z,996.00
2018-09-08T07:53:40.568Z,996.00
2018-09-08T07:54:40.448Z,1004.00
2018-09-08T07:55:40.439Z,1012.00
2018-09-08T07:56:40.525Z,1012.00
2018-09-08T07:57:40.456Z,1020.00
2018-09-08T07:58:40.446Z,1028.00
2018-09-08T07:59:40.511Z,1028.00
2018-09-08T08:00:40.462Z,1032.00
2018-09-08T08:01:40.488Z,1036.00
2018-09-08T08:02:40.468Z,1040.00
2018-09-08T08:03:40.470Z,1040.00
2018-09-08T08:04:40.481Z,1040.00
2018-09-08T08:05:40.479Z,1048.00
2018-09-08T08:06:40.499Z,1048.00
2018-09-08T08:07:40.509Z,1056.00
2018-09-08T08:08:40.527Z,1064.00
2018-09-08T08:09:40.501Z,1068.00
2018-09-08T08:10:40.511Z,1072.00
2018-09-08T08:11:40.520Z,1076.00
2018-09-08T08:12:40.528Z,1088.00
2018-09-08T08:13:40.582Z,1084.00
2018-09-08T08:14:40.594Z,1080.00
2018-09-08T08:15:40.548Z,1084.00
2018-09-08T08:16:40.542Z,1088.00
2018-09-08T08:17:40.550Z,1096.00
2018-09-08T08:18:40.619Z,1104.00
2018-09-08T08:19:40.611Z,1108.00
2018-09-08T08:20:40.565Z,1116.00
2018-09-08T08:21:40.582Z,1120.00
2018-09-08T08:22:40.566Z,1120.00
2018-09-08T08:23:40.574Z,1124.00
2018-09-08T08:24:40.649Z,1128.00
2018-09-08T08:25:40.584Z,1132.00
2018-09-08T08:26:40.589Z,1132.00
2018-09-08T08:27:40.597Z,1136.00
2018-09-08T08:28:40.605Z,1144.00
2018-09-08T08:29:40.608Z,1148.00
2018-09-08T08:30:40.609Z,1148.00
2018-09-08T08:31:40.627Z,1152.00
2018-09-08T08:32:40.623Z,1160.00
2018-09-08T08:33:40.632Z,1176.00
2018-09-08T08:34:40.635Z,1172.00
2018-09-08T08:35:40.740Z,1176.00
2018-09-08T08:36:40.641Z,1180.00
2018-09-08T08:37:40.651Z,1184.00
2018-09-08T08:38:40.654Z,1192.00
2018-09-08T08:39:40.723Z,1200.00
2018-09-08T08:40:40.712Z,1196.00
2018-09-08T08:41:40.677Z,1196.00
2018-09-08T08:42:40.763Z,1200.00
2018-09-08T08:43:40.702Z,1196.00
2018-09-08T08:44:40.702Z,1200.00
2018-09-08T08:45:40.710Z,1204.00
2018-09-08T08:46:40.707Z,1208.00
2018-09-08T08:47:40.711Z,1212.00
2018-09-08T08:48:40.726Z,1216.00
2018-09-08T08:49:40.781Z,1216.00
2018-09-08T08:50:40.750Z,1220.00
2018-09-08T08:51:40.731Z,1228.00
2018-09-08T08:52:40.734Z,1228.00
2018-09-08T08:53:40.742Z,1224.00
2018-09-08T08:54:40.750Z,1224.00
2018-09-08T08:55:40.753Z,1224.00
2018-09-08T08:56:40.843Z,1228.00
2018-09-08T08:57:40.771Z,1228.00
2018-09-08T08:58:40.774Z,1232.00
2018-09-08T08:59:40.783Z,1236.00
2018-09-08T09:00:40.815Z,1240.00
2018-09-08T09:01:40.794Z,1244.00
2018-09-08T09:02:40.793Z,1240.00
2018-09-08T09:03:40.807Z,1244.00
2018-09-08T09:04:40.808Z,1248.00
2018-09-08T09:05:40.830Z,1252.00
2018-09-08T09:06:40.818Z,1248.00
2018-09-08T09:07:40.822Z,1252.00
2018-09-08T09:08:41.269Z,1252.00
2018-09-08T09:09:40.842Z,1260.00
2018-09-08T09:10:40.846Z,1268.00
2018-09-08T09:11:40.854Z,1268.00
2018-09-08T09:12:40.873Z,1272.00
2018-09-08T09:13:40.865Z,1284.00
2018-09-08T09:14:41.203Z,1284.00
2018-09-08T09:15:40.872Z,1280.00
2018-09-08T09:16:40.919Z,1284.00
2018-09-08T09:17:40.918Z,1284.00
2018-09-08T09:18:41.400Z,1288.00
2018-09-08T09:19:40.947Z,1288.00
2018-09-08T09:20:40.929Z,1288.00
2018-09-08T09:21:40.906Z,1296.00
2018-09-08T09:22:40.930Z,1304.00
2018-09-08T09:23:40.993Z,1308.00
2018-09-08T09:24:41.342Z,1304.00
2018-09-08T09:25:40.960Z,1312.00
2018-09-08T09:26:40.954Z,1312.00
2018-09-08T09:27:40.968Z,1312.00
2018-09-08T09:28:41.036Z,1312.00
2018-09-08T09:29:41.006Z,1320.00
2018-09-08T09:30:40.961Z,1320.00
2018-09-08T09:31:41.039Z,1328.00
2018-09-08T09:32:41.036Z,1328.00
2018-09-08T09:33:40.997Z,1332.00
2018-09-08T09:34:41.008Z,1336.00
2018-09-08T09:35:41.021Z,1340.00
2018-09-08T09:36:41.004Z,1336.00
2018-09-08T09:37:41.014Z,1336.00
2018-09-08T09:38:41.068Z,1332.00
2018-09-08T09:39:41.022Z,1340.00
2018-09-08T09:40:41.031Z,1340.00
2018-09-08T09:41:41.050Z,1348.00
2018-09-08T09:42:41.039Z,1348.00
2018-09-08T09:43:41.135Z,1356.00
2018-09-08T09:44:41.074Z,1352.00
2018-09-08T09:45:47.565Z,1356.00
2018-09-08T09:46:41.070Z,1364.00
2018-09-08T09:47:41.081Z,1368.00
2018-09-08T09:48:41.098Z,1376.00
2018-09-08T09:49:41.091Z,1380.00
2018-09-08T09:50:41.095Z,1380.00
2018-09-08T09:51:41.109Z,1380.00
2018-09-08T09:52:41.104Z,1380.00
2018-09-08T09:53:41.111Z,1388.00
2018-09-08T09:54:41.126Z,1388.00
2018-09-08T09:55:41.202Z,1400.00
2018-09-08T09:56:41.167Z,1400.00
2018-09-08T09:57:41.139Z,1400.00
2018-09-08T09:58:41.145Z,1400.00
2018-09-08T09:59:41.154Z,1408.00
2018-09-08T10:00:41.156Z,1416.00
2018-09-08T10:01:41.171Z,1408.00
2018-09-08T10:02:41.221Z,1416.00
2018-09-08T10:03:41.191Z,1416.00
2018-09-08T10:04:41.185Z,1416.00
2018-09-08T10:05:41.193Z,1428.00
2018-09-08T10:06:41.256Z,1424.00
2018-09-08T10:07:41.236Z,1424.00
2018-09-08T10:08:41.217Z,1424.00
2018-09-08T10:09:41.227Z,1424.00
2018-09-08T10:10:41.235Z,1420.00
2018-09-08T10:11:41.249Z,1432.00
2018-09-08T10:12:41.255Z,1436.00
2018-09-08T10:13:41.249Z,1436.00
2018-09-08T10:14:41.267Z,1436.00
2018-09-08T10:15:41.264Z,1436.00
2018-09-08T10:16:41.268Z,1444.00
2018-09-08T10:17:41.276Z,1440.00
2018-09-08T10:18:41.284Z,1440.00
2018-09-08T10:19:41.347Z,1448.00
2018-09-08T10:20:41.309Z,1448.00
2018-09-08T10:21:41.317Z,1452.00
2018-09-08T10:22:41.390Z,1456.00
2018-09-08T10:23:41.325Z,1464.00
2018-09-08T10:24:41.334Z,1464.00
2018-09-08T10:25:41.361Z,1464.00
2018-09-08T10:26:41.350Z,1468.00
2018-09-08T10:27:41.370Z,1472.00
2018-09-08T10:28:41.364Z,1472.00
2018-09-08T10:29:41.587Z,1480.00
2018-09-08T10:30:41.375Z,1484.00
2018-09-08T10:31:41.374Z,1484.00
2018-09-08T10:32:41.385Z,1484.00
2018-09-08T10:33:41.398Z,1488.00
2018-09-08T10:34:41.504Z,1492.00
2018-09-08T10:35:41.461Z,1500.00
2018-09-08T10:36:41.418Z,1488.00
2018-09-08T10:37:41.423Z,1488.00
2018-09-08T11:38:24.404Z,1712.00
2018-09-08T11:39:24.152Z,1716.00
2018-09-08T11:40:24.184Z,1716.00
2018-09-08T11:41:24.187Z,1724.00
2018-09-08T11:42:24.155Z,1728.00
2018-09-08T11:43:24.156Z,1724.00
2018-09-08T11:44:24.161Z,1732.00
2018-09-08T11:45:24.177Z,1740.00
2018-09-08T11:46:24.182Z,1752.00
2018-09-08T11:47:24.192Z,1756.00
2018-09-08T11:48:24.222Z,1764.00
2018-09-08T11:49:24.234Z,1760.00
2018-09-08T11:50:24.213Z,1764.00
2018-09-08T11:51:24.221Z,1708.00
2018-09-08T11:52:24.225Z,1764.00
2018-09-08T11:53:24.234Z,1776.00
2018-09-08T11:54:24.241Z,1768.00
2018-09-08T11:55:24.252Z,1776.00
2018-09-08T11:56:24.264Z,1788.00
2018-09-08T11:57:24.265Z,1792.00
2018-09-08T11:58:24.274Z,1788.00
2018-09-08T11:59:24.295Z,1792.00
2018-09-08T12:00:24.289Z,1792.00
2018-09-08T12:01:24.301Z,1792.00
2018-09-08T12:02:24.307Z,1796.00
2018-09-08T12:03:24.314Z,1796.00
2018-09-08T12:04:24.328Z,1800.00
2018-09-08T12:05:24.396Z,1812.00
2018-09-08T12:06:24.423Z,1816.00
2018-09-08T12:07:24.377Z,1820.00
2018-09-08T12:08:24.382Z,1828.00
2018-09-08T12:09:24.384Z,1824.00
2018-09-08T12:10:24.392Z,1828.00
2018-09-08T12:11:24.391Z,1836.00
2018-09-08T12:12:24.444Z,1840.00
2018-09-08T12:13:24.446Z,1844.00
2018-09-08T12:14:24.464Z,1856.00
2018-09-08T12:15:24.430Z,1852.00
2018-09-08T12:16:24.427Z,1860.00
2018-09-08T12:17:24.432Z,1856.00
2018-09-08T12:18:24.487Z,1792.00
2018-09-08T12:19:24.448Z,1828.00
2018-09-08T12:20:24.459Z,1760.00
2018-09-08T12:21:24.497Z,1856.00
2018-09-08T12:22:24.523Z,1904.00
2018-09-08T12:23:24.480Z,1912.00
2018-09-08T12:24:24.545Z,1916.00
2018-09-08T12:25:24.571Z,1924.00
2018-09-08T12:26:24.505Z,1928.00
2018-09-08T12:27:24.516Z,1940.00
2018-09-08T12:28:24.537Z,1952.00
2018-09-08T12:29:24.561Z,1952.00
2018-09-08T12:30:24.574Z,1956.00
2018-09-08T12:31:24.600Z,1964.00
2018-09-08T12:32:24.593Z,1972.00
2018-09-08T12:33:24.563Z,1980.00
2018-09-08T12:34:24.575Z,1996.00
2018-09-08T12:35:24.626Z,2000.00
2018-09-08T12:36:24.600Z,2020.00
2018-09-08T12:37:24.650Z,2044.00
2018-09-08T12:38:24.612Z,2012.00
2018-09-08T12:39:24.617Z,2012.00
2018-09-08T12:40:24.627Z,1988.00
2018-09-08T12:41:24.646Z,1988.00
2018-09-08T12:42:24.642Z,2012.00
2018-09-08T12:43:24.652Z,2044.00
2018-09-08T12:44:24.707Z,2064.00
2018-09-08T12:45:24.716Z,2052.00
2018-09-08T12:46:24.684Z,2060.00
2018-09-08T12:47:24.702Z,2064.00
2018-09-08T12:48:24.709Z,2080.00
2018-09-08T12:49:24.748Z,2096.00
2018-09-08T12:50:24.728Z,2108.00
2018-09-08T12:51:24.728Z,2128.00
2018-09-08T12:52:24.763Z,2152.00
2018-09-08T12:53:24.800Z,2176.00
2018-09-08T12:54:24.815Z,2192.00
2018-09-08T12:55:24.753Z,2200.00
2018-09-08T12:56:24.785Z,2184.00
2018-09-08T12:57:24.833Z,2192.00
2018-09-08T12:58:24.780Z,2204.00
2018-09-08T12:59:24.813Z,2256.00
2018-09-08T13:00:24.799Z,2272.00
2018-09-08T13:01:24.805Z,2332.00
2018-09-08T13:02:24.817Z,2324.00
2018-09-08T13:03:24.840Z,2360.00
2018-09-08T13:04:24.839Z,2372.00
2018-09-08T13:05:24.853Z,2392.00
2018-09-08T13:06:24.859Z,2428.00
2018-09-08T13:07:24.860Z,2384.00
2018-09-08T13:08:24.875Z,2168.00
2018-09-08T13:09:24.876Z,1600.00
2018-09-08T13:10:24.889Z,1540.00
2018-09-08T13:11:24.904Z,2084.00
2018-09-08T13:12:24.905Z,1764.00
2018-09-08T13:13:24.913Z,1980.00
2018-09-08T13:14:24.927Z,2484.00
2018-09-08T13:15:24.929Z,2516.00
2018-09-08T13:16:24.941Z,2240.00
2018-09-08T13:17:24.945Z,2064.00
2018-09-08T13:18:24.955Z,2508.00
2018-09-08T13:19:24.964Z,2528.00
2018-09-08T13:20:24.976Z,2744.00
2018-09-08T13:21:24.983Z,2716.00
2018-09-08T13:22:25.003Z,2504.00
2018-09-08T13:23:25.014Z,2304.00
2018-09-08T13:24:25.034Z,2536.00
2018-09-08T13:25:25.048Z,2528.00
2018-09-08T13:26:25.044Z,2836.00
2018-09-08T13:27:25.046Z,2944.00
2018-09-08T13:28:25.054Z,3016.00
2018-09-08T13:29:25.060Z,3024.00
2018-09-08T13:30:25.066Z,2964.00
2018-09-08T13:31:25.083Z,2900.00
2018-09-08T13:32:25.086Z,3064.00
2018-09-08T13:33:25.101Z,3148.00
2018-09-08T13:34:25.105Z,3144.00
2018-09-08T13:35:25.113Z,3120.00
2018-09-08T13:36:25.133Z,3108.00
2018-09-08T13:37:25.133Z,3112.00